createdAt,value
2023-04-15T00:02:14.926Z,16.05
2023-04-15T00:07:19.067Z,24.90
2023-04-15T00:12:22.329Z,19.23
2023-04-15T00:17:25.161Z,10.88
2023-04-15T00:22:31.257Z,14.90
2023-04-15T00:27:34.271Z,13.80
2023-04-15T00:32:36.988Z,17.85
2023-04-15T00:37:41.223Z,15.02
2023-04-15T00:42:44.903Z,11.10
2023-04-15T00:47:47.683Z,13.68
2023-04-15T00:52:52.427Z,20.73
2023-04-15T00:57:56.120Z,12.32
2023-04-15T01:08:03.717Z,10.93
2023-04-15T01:13:07.206Z,17.73
2023-04-15T01:18:10.084Z,11.98
2023-04-15T01:23:16.934Z,14.73
2023-04-15T01:28:21.383Z,21.52
2023-04-15T01:33:24.179Z,21.88
2023-04-15T01:38:28.779Z,22.65
2023-04-15T01:43:33.001Z,20.80
2023-04-15T01:48:35.831Z,29.23
2023-04-15T01:53:39.768Z,32.00
2023-04-15T01:58:44.415Z,33.92
2023-04-15T02:03:48.046Z,21.27
2023-04-15T02:08:51.642Z,23.92
2023-04-15T02:13:55.834Z,20.63
2023-04-15T02:18:58.835Z,22.98
2023-04-15T02:24:02.285Z,25.35
2023-04-15T02:29:06.506Z,21.23
2023-04-15T02:34:09.417Z,30.20
2023-04-15T02:39:14.525Z,26.02
2023-04-15T02:44:20.253Z,19.70
2023-04-15T02:49:25.174Z,19.55
2023-04-15T02:54:29.336Z,19.15
2023-04-15T02:59:33.927Z,18.00
2023-04-15T03:04:37.018Z,16.13
2023-04-15T03:09:41.299Z,16.42
2023-04-15T03:14:45.626Z,16.75
2023-04-15T03:19:48.433Z,15.88
2023-04-15T03:24:51.985Z,20.05
2023-04-15T03:29:56.767Z,19.30
2023-04-15T03:35:01.409Z,15.95
2023-04-15T03:40:04.347Z,15.95
2023-04-15T03:45:10.472Z,21.27
2023-04-15T03:50:13.284Z,18.27
2023-04-15T03:55:16.484Z,17.85
2023-04-15T04:00:20.804Z,14.70
2023-04-15T04:05:23.796Z,15.02
2023-04-15T04:10:26.544Z,16.55
2023-04-15T04:15:31.141Z,14.35
2023-04-15T04:20:34.481Z,14.90
2023-04-15T04:25:37.617Z,13.18
2023-04-15T04:30:42.087Z,15.95
2023-04-15T04:35:44.915Z,11.80
2023-04-15T04:40:47.699Z,19.35
2023-04-15T04:45:52.079Z,13.93
2023-04-15T04:50:55.044Z,14.48
2023-04-15T04:55:58.184Z,17.45
2023-04-15T05:01:03.035Z,22.42
2023-04-15T05:06:08.704Z,13.25
2023-04-15T05:11:11.434Z,12.68
2023-04-15T05:16:15.582Z,10.25
2023-04-15T05:21:20.036Z,10.70
2023-04-15T05:26:24.242Z,11.98
2023-04-15T05:31:28.522Z,10.57
2023-04-15T05:36:31.541Z,17.65
2023-04-15T05:41:34.550Z,11.82
2023-04-15T05:46:38.931Z,20.02
2023-04-15T05:51:41.746Z,16.15
2023-04-15T05:56:44.447Z,16.73
2023-04-15T06:01:48.648Z,18.48
2023-04-15T06:06:51.508Z,21.35
2023-04-15T06:11:54.606Z,19.23
2023-04-15T06:16:59.012Z,15.85
2023-04-15T06:22:01.872Z,28.27
2023-04-15T06:27:05.567Z,20.67
2023-04-15T06:32:09.928Z,19.17
2023-04-15T06:37:16.236Z,13.95
2023-04-15T06:42:19.196Z,31.23
2023-04-15T06:47:23.325Z,20.67
2023-04-15T06:52:26.233Z,23.27
2023-04-15T06:57:29.615Z,13.38
2023-04-15T07:02:35.742Z,17.83
2023-04-15T07:07:39.055Z,15.67
2023-04-15T07:12:42.252Z,28.05
2023-04-15T07:17:47.141Z,15.52
2023-04-15T07:22:49.899Z,15.38
2023-04-15T07:27:54.618Z,17.35
2023-04-15T07:32:59.812Z,16.50
2023-04-15T07:38:02.743Z,20.92
2023-04-15T07:43:05.583Z,16.52
2023-04-15T07:48:09.716Z,15.32
2023-04-15T07:53:12.465Z,16.23
2023-04-15T07:58:15.340Z,11.27
2023-04-15T08:03:19.612Z,14.90
2023-04-15T08:08:22.534Z,14.93
2023-04-15T08:13:25.421Z,11.75
2023-04-15T08:18:31.620Z,5.38
2023-04-15T08:23:34.604Z,6.00
2023-04-15T08:28:39.540Z,3.25
2023-04-15T08:33:44.311Z,15.38
2023-04-15T08:38:47.182Z,8.18
2023-04-15T08:43:54.362Z,8.80
2023-04-15T08:54:03.472Z,8.20
2023-04-15T08:59:06.501Z,5.80
2023-04-15T09:04:12.729Z,4.50
2023-04-15T09:09:16.680Z,13.20
2023-04-15T09:14:19.643Z,6.93
2023-04-15T09:19:24.674Z,3.17
2023-04-15T09:24:37.741Z,4.65
2023-04-15T09:29:42.670Z,6.15
2023-04-15T09:34:46.854Z,20.17
2023-04-15T09:39:51.158Z,4.68
2023-04-15T09:44:55.389Z,10.25
2023-04-15T09:50:00.644Z,6.07
2023-04-15T09:55:04.414Z,4.88
2023-04-15T10:00:11.681Z,7.20
2023-04-15T10:05:18.535Z,6.75
2023-04-15T10:10:21.794Z,2.40
2023-04-15T10:15:25.757Z,2.17
2023-04-15T10:20:30.528Z,2.75
2023-04-15T10:25:34.749Z,2.55
2023-04-15T10:30:37.689Z,1.58
2023-04-15T10:35:43.081Z,3.40
2023-04-15T10:40:47.884Z,2.38
2023-04-15T10:45:50.645Z,4.13
2023-04-15T10:50:58.988Z,3.92
2023-04-15T10:56:01.771Z,2.28
2023-04-15T11:01:04.543Z,3.08
2023-04-15T11:06:09.722Z,3.40
2023-04-15T11:11:12.583Z,2.85
2023-04-15T11:16:15.514Z,3.15
2023-04-15T11:21:21.136Z,2.33
2023-04-15T11:26:28.122Z,1.83
2023-04-15T11:31:30.942Z,2.67
2023-04-15T11:36:35.365Z,7.18
2023-04-15T11:41:38.372Z,2.35
2023-04-15T11:46:41.081Z,2.72
2023-04-15T11:51:46.241Z,3.00
2023-04-15T11:56:52.205Z,2.05
2023-04-15T12:01:55.036Z,3.20
2023-04-15T12:07:06.622Z,2.30
2023-04-15T12:12:11.800Z,2.92
2023-04-15T12:17:15.514Z,3.67
2023-04-15T12:22:20.166Z,2.70
2023-04-15T12:27:29.890Z,2.22
2023-04-15T12:32:37.430Z,2.63
2023-04-15T12:37:41.819Z,3.28
2023-04-15T12:42:44.733Z,2.30
2023-04-15T12:47:49.118Z,2.60
2023-04-15T12:52:53.277Z,2.65
2023-04-15T12:57:56.064Z,4.00
2023-04-15T13:02:58.839Z,3.95
2023-04-15T13:08:03.031Z,3.45
2023-04-15T13:13:08.315Z,7.85
2023-04-15T13:18:11.130Z,6.65
2023-04-15T13:23:17.182Z,8.52
2023-04-15T13:28:20.449Z,10.02
2023-04-15T13:33:23.300Z,8.23
2023-04-15T13:38:27.532Z,13.65
2023-04-15T13:43:30.612Z,9.10
2023-04-15T13:48:33.622Z,8.50
2023-04-15T13:53:39.730Z,8.50
2023-04-15T13:58:42.629Z,10.45
2023-04-15T14:03:45.722Z,8.35
2023-04-15T14:08:50.373Z,6.95
2023-04-15T14:13:55.060Z,8.30
2023-04-15T14:18:57.991Z,8.48
2023-04-15T14:24:02.216Z,13.00
2023-04-15T14:29:05.563Z,10.32
2023-04-15T14:34:09.159Z,11.75
2023-04-15T14:39:15.327Z,11.98
2023-04-15T14:44:18.633Z,11.70
2023-04-15T14:49:21.576Z,12.57
2023-04-15T14:54:25.791Z,11.88
2023-04-15T14:59:28.595Z,14.30
2023-04-15T15:04:33.402Z,11.27
2023-04-15T15:09:37.604Z,10.35
2023-04-15T15:14:40.647Z,8.50
2023-04-15T15:19:43.476Z,11.45
2023-04-15T15:24:47.537Z,14.60
2023-04-15T15:29:52.666Z,12.32
2023-04-15T15:34:55.590Z,12.68
2023-04-15T15:40:00.793Z,13.48
2023-04-15T15:45:05.974Z,12.33
2023-04-15T15:50:09.983Z,13.15
2023-04-15T15:55:15.011Z,9.85
2023-04-15T16:00:18.324Z,9.30
2023-04-15T16:05:21.086Z,14.63
2023-04-15T16:10:25.337Z,10.13
2023-04-15T16:15:28.179Z,10.23
2023-04-15T16:20:32.043Z,10.45
2023-04-15T16:25:36.281Z,13.45
2023-04-15T16:30:39.733Z,11.05
2023-04-15T16:35:42.496Z,12.52
2023-04-15T16:40:47.000Z,12.15
2023-04-15T16:45:51.416Z,10.90
2023-04-15T16:50:54.514Z,13.80
2023-04-15T16:55:58.657Z,14.13
2023-04-15T17:01:01.571Z,24.60
2023-04-15T17:06:04.447Z,9.90
2023-04-15T17:11:08.589Z,12.35
2023-04-15T17:16:11.574Z,17.02
2023-04-15T17:21:15.252Z,17.90
2023-04-15T17:26:20.054Z,12.55
2023-04-15T17:31:23.178Z,17.92
2023-04-15T17:36:26.780Z,12.80
2023-04-15T17:41:31.022Z,15.20
2023-04-15T17:46:33.911Z,16.38
2023-04-15T17:51:36.766Z,11.70
2023-04-15T17:56:44.674Z,12.80
2023-04-15T18:01:48.224Z,11.98
2023-04-15T18:06:52.652Z,11.27
2023-04-15T18:11:57.362Z,10.07
2023-04-15T18:17:00.520Z,11.80
2023-04-15T18:22:03.976Z,13.40
2023-04-15T18:27:08.271Z,10.23
2023-04-15T18:32:11.525Z,33.53
2023-04-15T18:37:14.675Z,12.57
2023-04-15T18:42:18.765Z,10.93
2023-04-15T18:47:21.989Z,9.73
2023-04-15T18:52:24.800Z,11.30
2023-04-15T18:57:33.190Z,9.45
2023-04-15T19:02:38.226Z,9.77
2023-04-15T19:07:41.125Z,11.07
2023-04-15T19:12:46.106Z,8.85
2023-04-15T19:17:49.039Z,11.60
2023-04-15T19:22:52.034Z,9.02
2023-04-15T19:27:57.469Z,7.53
2023-04-15T19:33:01.335Z,10.63
2023-04-15T19:38:04.405Z,9.00
2023-04-15T19:43:08.563Z,8.60
2023-04-15T19:48:11.344Z,9.40
2023-04-15T19:53:14.168Z,8.80
2023-04-15T19:58:18.461Z,8.60
2023-04-15T20:03:21.952Z,11.25
2023-04-15T20:08:25.170Z,8.38
2023-04-15T20:13:29.392Z,10.57
2023-04-15T20:18:32.227Z,7.90
2023-04-15T20:23:35.943Z,12.80
2023-04-15T20:28:40.239Z,9.80
2023-04-15T20:33:43.124Z,9.25
2023-04-15T20:38:45.978Z,11.00
2023-04-15T20:43:50.378Z,9.57
2023-04-15T20:48:53.216Z,12.23
2023-04-15T20:53:56.211Z,10.05
2023-04-15T20:59:01.065Z,12.93
2023-04-15T21:04:03.886Z,11.02
2023-04-15T21:09:07.058Z,22.17
2023-04-15T21:14:12.273Z,37.65
2023-04-15T21:19:15.828Z,13.68
2023-04-15T21:24:18.513Z,11.02
2023-04-15T21:29:23.291Z,16.27
2023-04-15T21:34:25.971Z,18.33
2023-04-15T21:39:30.223Z,24.90
2023-04-15T21:44:34.307Z,21.75
2023-04-15T21:49:37.036Z,21.92
2023-04-15T21:54:40.388Z,12.18
2023-04-15T21:59:45.151Z,17.73
2023-04-15T22:04:48.374Z,15.95
2023-04-15T22:09:51.508Z,16.83
2023-04-15T22:14:56.888Z,19.55
2023-04-15T22:19:59.776Z,17.55
2023-04-15T22:25:02.566Z,11.82
2023-04-15T22:30:08.360Z,26.30
2023-04-15T22:35:11.158Z,10.70
2023-04-15T22:40:14.388Z,15.70
2023-04-15T22:45:19.252Z,16.38
2023-04-15T22:50:22.388Z,17.40
2023-04-15T22:55:25.194Z,20.92
2023-04-15T23:00:29.367Z,18.60
2023-04-15T23:05:32.282Z,17.90
2023-04-15T23:10:35.457Z,17.25
2023-04-15T23:15:39.589Z,21.33
2023-04-15T23:20:42.584Z,18.92
2023-04-15T23:25:45.444Z,20.25
2023-04-15T23:30:49.617Z,19.10
2023-04-15T23:35:52.342Z,17.40
2023-04-15T23:40:55.074Z,23.58
2023-04-15T23:45:59.150Z,25.63
2023-04-15T23:51:02.578Z,21.52
2023-04-15T23:56:06.719Z,25.50
